首页
METAR-TAF:

METAR-TAF

机场 :

St. Paul Downtown Airport (Holman Field)

圣保罗, 明尼蘇達州, 美国

纬度: 44-55-49N, 经度: 093-02-53W, 海拔: 214米

当前天气观测

该预报发布于26分钟前的17:53 UTC
风速13节,风向
温度 24°C
湿度 74%
气压 1006 hPa
能見度: 16.1公里
天空无云

METAR: KSTP 151753Z 18013KT 10SM CLR 24/19 A2971 RMK AO2 RAE31 SLP054 P0001 60015 T02390194 10239 20217 58024

时间: 13:19 (18:19 UTC)


TAF: 丢失

超过4000个机场的气象观测和天气预报(METAR&TAF报告)。

可查询的气象台以黄色和红色小点在地图上表示。

将鼠标移到小点上方,可查看气象台名称。

然后点击查看天气观测和预报。

如需切换地图:点击带黑十字的绿色按钮放大地图;点击带横线的绿色按钮缩小地图;或者点击绿色箭头查看邻近地区的地图。


METAR-TAF: